sensor_id;sensor_type;location;lat;lon;timestamp;P1;durP1;ratioP1;P2;durP2;ratioP2
67564;SDS011;54393;53.556;49.216;2023-09-12T00:03:04;1.33;;;1.23;;
67564;SDS011;54393;53.556;49.216;2023-09-12T00:05:30;1.00;;;1.00;;
67564;SDS011;54393;53.556;49.216;2023-09-12T00:07:56;1.00;;;1.00;;
67564;SDS011;54393;53.556;49.216;2023-09-12T00:10:23;1.12;;;1.12;;
67564;SDS011;54393;53.556;49.216;2023-09-12T00:12:50;1.05;;;1.05;;
67564;SDS011;54393;53.556;49.216;2023-09-12T00:15:17;1.00;;;1.00;;
67564;SDS011;54393;53.556;49.216;2023-09-12T00:17:44;1.20;;;1.10;;
67564;SDS011;54393;53.556;49.216;2023-09-12T00:20:11;0.77;;;0.77;;
67564;SDS011;54393;53.556;49.216;2023-09-12T00:22:58;1.10;;;1.10;;
67564;SDS011;54393;53.556;49.216;2023-09-12T00:25:24;1.10;;;1.10;;
67564;SDS011;54393;53.556;49.216;2023-09-12T00:27:51;1.30;;;1.20;;
67564;SDS011;54393;53.556;49.216;2023-09-12T00:30:17;1.08;;;1.05;;
67564;SDS011;54393;53.556;49.216;2023-09-12T00:32:45;1.00;;;1.00;;
67564;SDS011;54393;53.556;49.216;2023-09-12T00:35:12;1.45;;;1.25;;
67564;SDS011;54393;53.556;49.216;2023-09-12T00:37:38;1.12;;;1.10;;
67564;SDS011;54393;53.556;49.216;2023-09-12T00:40:05;1.23;;;1.20;;
67564;SDS011;54393;53.556;49.216;2023-09-12T00:42:52;0.88;;;0.88;;
67564;SDS011;54393;53.556;49.216;2023-09-12T00:45:19;0.98;;;0.98;;
67564;SDS011;54393;53.556;49.216;2023-09-12T00:47:45;1.25;;;1.10;;
67564;SDS011;54393;53.556;49.216;2023-09-12T00:50:12;1.10;;;1.10;;
67564;SDS011;54393;53.556;49.216;2023-09-12T00:52:59;0.80;;;0.80;;
67564;SDS011;54393;53.556;49.216;2023-09-12T00:55:28;0.85;;;0.85;;
67564;SDS011;54393;53.556;49.216;2023-09-12T00:57:56;1.10;;;1.10;;
67564;SDS011;54393;53.556;49.216;2023-09-12T01:00:22;1.00;;;1.00;;
67564;SDS011;54393;53.556;49.216;2023-09-12T01:02:49;1.15;;;1.15;;
67564;SDS011;54393;53.556;49.216;2023-09-12T01:05:17;0.95;;;0.95;;
67564;SDS011;54393;53.556;49.216;2023-09-12T01:07:44;1.00;;;1.00;;
67564;SDS011;54393;53.556;49.216;2023-09-12T01:10:11;1.02;;;1.02;;
67564;SDS011;54393;53.556;49.216;2023-09-12T01:12:37;1.17;;;1.08;;
67564;SDS011;54393;53.556;49.216;2023-09-12T01:15:04;0.93;;;0.93;;
67564;SDS011;54393;53.556;49.216;2023-09-12T01:17:38;1.05;;;1.05;;
67564;SDS011;54393;53.556;49.216;2023-09-12T01:20:06;1.17;;;1.17;;
67564;SDS011;54393;53.556;49.216;2023-09-12T01:28:38;1.12;;;1.12;;
67564;SDS011;54393;53.556;49.216;2023-09-12T01:31:08;1.35;;;1.25;;
67564;SDS011;54393;53.556;49.216;2023-09-12T01:33:35;1.00;;;1.00;;
67564;SDS011;54393;53.556;49.216;2023-09-12T01:36:01;1.10;;;1.10;;
67564;SDS011;54393;53.556;49.216;2023-09-12T01:38:28;1.20;;;1.10;;
67564;SDS011;54393;53.556;49.216;2023-09-12T01:40:55;1.20;;;1.20;;
67564;SDS011;54393;53.556;49.216;2023-09-12T01:43:22;1.00;;;1.00;;
67564;SDS011;54393;53.556;49.216;2023-09-12T01:45:50;1.10;;;1.10;;
67564;SDS011;54393;53.556;49.216;2023-09-12T01:48:19;1.20;;;1.20;;
67564;SDS011;54393;53.556;49.216;2023-09-12T01:50:48;0.95;;;0.95;;
67564;SDS011;54393;53.556;49.216;2023-09-12T01:53:14;0.95;;;0.95;;
67564;SDS011;54393;53.556;49.216;2023-09-12T01:55:41;1.00;;;1.00;;
67564;SDS011;54393;53.556;49.216;2023-09-12T01:58:09;1.00;;;1.00;;
67564;SDS011;54393;53.556;49.216;2023-09-12T02:00:36;1.20;;;1.20;;
67564;SDS011;54393;53.556;49.216;2023-09-12T02:03:05;1.10;;;1.10;;
67564;SDS011;54393;53.556;49.216;2023-09-12T02:05:31;0.90;;;0.90;;
67564;SDS011;54393;53.556;49.216;2023-09-12T02:07:58;1.30;;;1.20;;
67564;SDS011;54393;53.556;49.216;2023-09-12T02:10:26;2.03;;;1.00;;
67564;SDS011;54393;53.556;49.216;2023-09-12T02:12:53;0.82;;;0.82;;
67564;SDS011;54393;53.556;49.216;2023-09-12T02:15:19;1.50;;;1.40;;
67564;SDS011;54393;53.556;49.216;2023-09-12T02:17:46;1.20;;;1.20;;
67564;SDS011;54393;53.556;49.216;2023-09-12T02:20:15;1.10;;;1.10;;
67564;SDS011;54393;53.556;49.216;2023-09-12T02:22:44;1.02;;;1.00;;
67564;SDS011;54393;53.556;49.216;2023-09-12T02:25:10;1.10;;;1.10;;
67564;SDS011;54393;53.556;49.216;2023-09-12T02:27:57;1.23;;;1.23;;
67564;SDS011;54393;53.556;49.216;2023-09-12T02:30:23;1.17;;;1.17;;
67564;SDS011;54393;53.556;49.216;2023-09-12T02:32:50;1.02;;;1.02;;
67564;SDS011;54393;53.556;49.216;2023-09-12T02:35:16;1.02;;;1.02;;
67564;SDS011;54393;53.556;49.216;2023-09-12T02:37:43;1.23;;;1.12;;
67564;SDS011;54393;53.556;49.216;2023-09-12T02:40:10;1.48;;;1.40;;
67564;SDS011;54393;53.556;49.216;2023-09-12T02:42:57;1.40;;;1.30;;
67564;SDS011;54393;53.556;49.216;2023-09-12T02:45:23;1.25;;;1.20;;
67564;SDS011;54393;53.556;49.216;2023-09-12T02:47:50;1.00;;;1.00;;
67564;SDS011;54393;53.556;49.216;2023-09-12T02:50:16;1.08;;;1.08;;
67564;SDS011;54393;53.556;49.216;2023-09-12T02:53:03;1.20;;;1.20;;
67564;SDS011;54393;53.556;49.216;2023-09-12T02:55:29;1.17;;;1.17;;
67564;SDS011;54393;53.556;49.216;2023-09-12T02:57:56;1.05;;;1.05;;
67564;SDS011;54393;53.556;49.216;2023-09-12T03:00:22;1.15;;;1.15;;
67564;SDS011;54393;53.556;49.216;2023-09-12T03:02:49;1.00;;;1.00;;
67564;SDS011;54393;53.556;49.216;2023-09-12T03:05:15;1.40;;;1.40;;
67564;SDS011;54393;53.556;49.216;2023-09-12T03:07:42;1.05;;;1.05;;
67564;SDS011;54393;53.556;49.216;2023-09-12T03:10:08;1.10;;;1.10;;
67564;SDS011;54393;53.556;49.216;2023-09-12T03:12:55;1.27;;;1.20;;
67564;SDS011;54393;53.556;49.216;2023-09-12T03:15:21;1.00;;;1.00;;
67564;SDS011;54393;53.556;49.216;2023-09-12T03:17:48;1.83;;;1.37;;
67564;SDS011;54393;53.556;49.216;2023-09-12T03:20:14;1.15;;;1.02;;
67564;SDS011;54393;53.556;49.216;2023-09-12T03:22:41;2.70;;;1.40;;
67564;SDS011;54393;53.556;49.216;2023-09-12T03:25:07;1.10;;;1.10;;
67564;SDS011;54393;53.556;49.216;2023-09-12T03:27:54;1.10;;;1.10;;
67564;SDS011;54393;53.556;49.216;2023-09-12T03:30:20;1.12;;;1.10;;
67564;SDS011;54393;53.556;49.216;2023-09-12T03:32:47;1.12;;;1.12;;
67564;SDS011;54393;53.556;49.216;2023-09-12T03:35:14;1.70;;;1.60;;
67564;SDS011;54393;53.556;49.216;2023-09-12T03:38:00;1.27;;;1.10;;
67564;SDS011;54393;53.556;49.216;2023-09-12T03:40:28;1.05;;;1.05;;
67564;SDS011;54393;53.556;49.216;2023-09-12T03:42:57;1.23;;;1.23;;
67564;SDS011;54393;53.556;49.216;2023-09-12T03:45:24;2.45;;;1.37;;
67564;SDS011;54393;53.556;49.216;2023-09-12T03:47:51;1.37;;;1.27;;
67564;SDS011;54393;53.556;49.216;2023-09-12T03:50:17;1.30;;;1.30;;
67564;SDS011;54393;53.556;49.216;2023-09-12T03:52:44;0.98;;;0.98;;
67564;SDS011;54393;53.556;49.216;2023-09-12T03:55:10;1.20;;;1.20;;
67564;SDS011;54393;53.556;49.216;2023-09-12T03:57:57;1.52;;;1.42;;
67564;SDS011;54393;53.556;49.216;2023-09-12T04:00:23;1.45;;;1.35;;
67564;SDS011;54393;53.556;49.216;2023-09-12T04:02:50;0.93;;;0.93;;
67564;SDS011;54393;53.556;49.216;2023-09-12T04:05:16;1.10;;;1.10;;
67564;SDS011;54393;53.556;49.216;2023-09-12T04:07:43;1.58;;;1.48;;
67564;SDS011;54393;53.556;49.216;2023-09-12T04:10:09;1.30;;;1.27;;
67564;SDS011;54393;53.556;49.216;2023-09-12T04:12:56;1.02;;;1.02;;
67564;SDS011;54393;53.556;49.216;2023-09-12T04:15:22;1.65;;;1.55;;
67564;SDS011;54393;53.556;49.216;2023-09-12T04:17:49;1.37;;;1.27;;
67564;SDS011;54393;53.556;49.216;2023-09-12T04:20:15;1.65;;;1.55;;
67564;SDS011;54393;53.556;49.216;2023-09-12T04:22:42;1.52;;;1.42;;
67564;SDS011;54393;53.556;49.216;2023-09-12T04:25:09;1.27;;;1.23;;
67564;SDS011;54393;53.556;49.216;2023-09-12T04:27:55;1.30;;;1.20;;
67564;SDS011;54393;53.556;49.216;2023-09-12T04:30:22;1.75;;;1.35;;
67564;SDS011;54393;53.556;49.216;2023-09-12T04:32:48;1.40;;;1.30;;
67564;SDS011;54393;53.556;49.216;2023-09-12T04:35:15;1.10;;;1.10;;
67564;SDS011;54393;53.556;49.216;2023-09-12T04:37:44;1.20;;;1.20;;
67564;SDS011;54393;53.556;49.216;2023-09-12T04:40:11;1.58;;;1.25;;
67564;SDS011;54393;53.556;49.216;2023-09-12T04:42:38;1.40;;;1.30;;
67564;SDS011;54393;53.556;49.216;2023-09-12T04:45:04;1.25;;;1.20;;
67564;SDS011;54393;53.556;49.216;2023-09-12T04:47:51;1.42;;;1.33;;
67564;SDS011;54393;53.556;49.216;2023-09-12T04:50:18;1.42;;;1.33;;
67564;SDS011;54393;53.556;49.216;2023-09-12T04:52:44;1.95;;;1.27;;
67564;SDS011;54393;53.556;49.216;2023-09-12T04:55:11;1.35;;;1.35;;
67564;SDS011;54393;53.556;49.216;2023-09-12T04:57:57;1.60;;;1.50;;
67564;SDS011;54393;53.556;49.216;2023-09-12T05:00:24;1.12;;;1.05;;
67564;SDS011;54393;53.556;49.216;2023-09-12T05:02:50;1.10;;;1.10;;
67564;SDS011;54393;53.556;49.216;2023-09-12T05:05:17;1.40;;;1.10;;
67564;SDS011;54393;53.556;49.216;2023-09-12T05:07:43;1.10;;;1.10;;
67564;SDS011;54393;53.556;49.216;2023-09-12T05:10:09;1.50;;;1.40;;
67564;SDS011;54393;53.556;49.216;2023-09-12T05:12:56;1.15;;;1.15;;
67564;SDS011;54393;53.556;49.216;2023-09-12T05:15:22;1.60;;;1.50;;
67564;SDS011;54393;53.556;49.216;2023-09-12T05:17:49;1.52;;;1.42;;
67564;SDS011;54393;53.556;49.216;2023-09-12T05:20:15;1.73;;;1.60;;
67564;SDS011;54393;53.556;49.216;2023-09-12T05:22:42;1.08;;;1.08;;
67564;SDS011;54393;53.556;49.216;2023-09-12T05:25:08;1.48;;;1.37;;
67564;SDS011;54393;53.556;49.216;2023-09-12T05:27:55;1.52;;;1.48;;
67564;SDS011;54393;53.556;49.216;2023-09-12T05:30:22;2.55;;;1.10;;
67564;SDS011;54393;53.556;49.216;2023-09-12T05:32:48;1.08;;;1.08;;
67564;SDS011;54393;53.556;49.216;2023-09-12T05:35:15;1.15;;;1.15;;
67564;SDS011;54393;53.556;49.216;2023-09-12T05:37:41;1.52;;;1.42;;
67564;SDS011;54393;53.556;49.216;2023-09-12T05:40:08;1.33;;;1.23;;
67564;SDS011;54393;53.556;49.216;2023-09-12T05:42:55;1.17;;;1.10;;
67564;SDS011;54393;53.556;49.216;2023-09-12T05:45:22;1.75;;;1.35;;
67564;SDS011;54393;53.556;49.216;2023-09-12T05:47:48;1.65;;;1.55;;
67564;SDS011;54393;53.556;49.216;2023-09-12T05:50:15;1.85;;;1.30;;
67564;SDS011;54393;53.556;49.216;2023-09-12T05:53:02;1.62;;;1.42;;
67564;SDS011;54393;53.556;49.216;2023-09-12T05:55:29;1.85;;;1.62;;
67564;SDS011;54393;53.556;49.216;2023-09-12T05:57:55;2.15;;;1.30;;
67564;SDS011;54393;53.556;49.216;2023-09-12T06:00:22;2.15;;;1.55;;
67564;SDS011;54393;53.556;49.216;2023-09-12T06:02:48;2.70;;;1.52;;
67564;SDS011;54393;53.556;49.216;2023-09-12T06:05:15;1.65;;;1.55;;
67564;SDS011;54393;53.556;49.216;2023-09-12T06:07:42;1.40;;;1.30;;
67564;SDS011;54393;53.556;49.216;2023-09-12T06:10:09;2.20;;;1.40;;
67564;SDS011;54393;53.556;49.216;2023-09-12T06:12:56;1.70;;;1.60;;
67564;SDS011;54393;53.556;49.216;2023-09-12T06:15:23;2.45;;;1.62;;
67564;SDS011;54393;53.556;49.216;2023-09-12T06:17:49;1.67;;;1.40;;
67564;SDS011;54393;53.556;49.216;2023-09-12T06:20:15;1.42;;;1.33;;
67564;SDS011;54393;53.556;49.216;2023-09-12T06:22:42;1.52;;;1.42;;
67564;SDS011;54393;53.556;49.216;2023-09-12T06:25:08;1.73;;;1.60;;
67564;SDS011;54393;53.556;49.216;2023-09-12T06:27:55;1.55;;;1.45;;
67564;SDS011;54393;53.556;49.216;2023-09-12T06:30:21;1.52;;;1.42;;
67564;SDS011;54393;53.556;49.216;2023-09-12T06:32:48;1.60;;;1.48;;
67564;SDS011;54393;53.556;49.216;2023-09-12T06:35:14;1.52;;;1.42;;
67564;SDS011;54393;53.556;49.216;2023-09-12T06:37:41;2.17;;;1.83;;
67564;SDS011;54393;53.556;49.216;2023-09-12T06:40:07;2.05;;;1.50;;
67564;SDS011;54393;53.556;49.216;2023-09-12T06:42:54;5.55;;;1.77;;
67564;SDS011;54393;53.556;49.216;2023-09-12T06:45:21;1.40;;;1.30;;
67564;SDS011;54393;53.556;49.216;2023-09-12T06:47:47;2.90;;;1.33;;
67564;SDS011;54393;53.556;49.216;2023-09-12T06:50:13;3.15;;;1.80;;
67564;SDS011;54393;53.556;49.216;2023-09-12T06:53:00;4.75;;;1.90;;
67564;SDS011;54393;53.556;49.216;2023-09-12T06:55:27;7.20;;;2.50;;
67564;SDS011;54393;53.556;49.216;2023-09-12T06:57:54;5.05;;;2.00;;
67564;SDS011;54393;53.556;49.216;2023-09-12T07:00:20;4.80;;;2.17;;
67564;SDS011;54393;53.556;49.216;2023-09-12T07:02:47;4.95;;;2.05;;
67564;SDS011;54393;53.556;49.216;2023-09-12T07:05:13;3.28;;;1.92;;
67564;SDS011;54393;53.556;49.216;2023-09-12T07:08:00;6.18;;;2.10;;
67564;SDS011;54393;53.556;49.216;2023-09-12T07:10:26;3.80;;;2.60;;
67564;SDS011;54393;53.556;49.216;2023-09-12T07:12:53;5.28;;;1.95;;
67564;SDS011;54393;53.556;49.216;2023-09-12T07:15:19;4.47;;;2.10;;
67564;SDS011;54393;53.556;49.216;2023-09-12T07:17:46;3.15;;;2.00;;
67564;SDS011;54393;53.556;49.216;2023-09-12T07:20:12;2.97;;;1.90;;
67564;SDS011;54393;53.556;49.216;2023-09-12T07:22:39;2.37;;;2.08;;
67564;SDS011;54393;53.556;49.216;2023-09-12T07:25:06;6.45;;;2.55;;
67564;SDS011;54393;53.556;49.216;2023-09-12T07:27:54;4.90;;;2.28;;
67564;SDS011;54393;53.556;49.216;2023-09-12T07:30:21;3.97;;;2.08;;
67564;SDS011;54393;53.556;49.216;2023-09-12T07:32:47;5.93;;;2.10;;
67564;SDS011;54393;53.556;49.216;2023-09-12T07:35:15;6.15;;;2.25;;
67564;SDS011;54393;53.556;49.216;2023-09-12T07:37:41;6.85;;;2.20;;
67564;SDS011;54393;53.556;49.216;2023-09-12T07:40:08;3.87;;;2.10;;
67564;SDS011;54393;53.556;49.216;2023-09-12T07:42:56;2.70;;;2.08;;
67564;SDS011;54393;53.556;49.216;2023-09-12T07:45:22;6.03;;;2.25;;
67564;SDS011;54393;53.556;49.216;2023-09-12T07:47:49;2.65;;;2.30;;
67564;SDS011;54393;53.556;49.216;2023-09-12T07:50:16;3.17;;;2.08;;
67564;SDS011;54393;53.556;49.216;2023-09-12T07:53:02;3.97;;;2.10;;
67564;SDS011;54393;53.556;49.216;2023-09-12T07:55:29;3.62;;;1.77;;
67564;SDS011;54393;53.556;49.216;2023-09-12T07:58:01;5.28;;;2.20;;
67564;SDS011;54393;53.556;49.216;2023-09-12T08:00:28;2.00;;;1.80;;
67564;SDS011;54393;53.556;49.216;2023-09-12T08:02:54;2.17;;;1.98;;
67564;SDS011;54393;53.556;49.216;2023-09-12T08:05:21;2.97;;;2.35;;
67564;SDS011;54393;53.556;49.216;2023-09-12T08:07:47;3.55;;;1.95;;
67564;SDS011;54393;53.556;49.216;2023-09-12T08:10:14;2.83;;;2.22;;
67564;SDS011;54393;53.556;49.216;2023-09-12T08:12:40;5.62;;;2.50;;
67564;SDS011;54393;53.556;49.216;2023-09-12T08:15:07;5.22;;;2.50;;
67564;SDS011;54393;53.556;49.216;2023-09-12T08:17:54;4.12;;;2.20;;
67564;SDS011;54393;53.556;49.216;2023-09-12T08:20:21;5.15;;;2.45;;
67564;SDS011;54393;53.556;49.216;2023-09-12T08:22:47;4.53;;;2.25;;
67564;SDS011;54393;53.556;49.216;2023-09-12T08:25:14;3.37;;;2.22;;
67564;SDS011;54393;53.556;49.216;2023-09-12T08:27:40;3.40;;;2.03;;
67564;SDS011;54393;53.556;49.216;2023-09-12T08:30:08;5.45;;;2.50;;
67564;SDS011;54393;53.556;49.216;2023-09-12T08:32:56;2.78;;;2.10;;
67564;SDS011;54393;53.556;49.216;2023-09-12T08:35:22;2.33;;;2.15;;
67564;SDS011;54393;53.556;49.216;2023-09-12T08:37:49;3.50;;;2.22;;
67564;SDS011;54393;53.556;49.216;2023-09-12T08:40:15;3.85;;;2.03;;
67564;SDS011;54393;53.556;49.216;2023-09-12T08:43:02;4.45;;;2.58;;
67564;SDS011;54393;53.556;49.216;2023-09-12T08:45:29;4.28;;;1.98;;
67564;SDS011;54393;53.556;49.216;2023-09-12T08:47:56;4.12;;;2.28;;
67564;SDS011;54393;53.556;49.216;2023-09-12T08:50:26;4.10;;;2.20;;
67564;SDS011;54393;53.556;49.216;2023-09-12T08:52:56;3.42;;;2.08;;
67564;SDS011;54393;53.556;49.216;2023-09-12T08:55:22;1.98;;;1.83;;
67564;SDS011;54393;53.556;49.216;2023-09-12T08:57:50;2.62;;;2.20;;
67564;SDS011;54393;53.556;49.216;2023-09-12T09:00:17;2.00;;;1.80;;
67564;SDS011;54393;53.556;49.216;2023-09-12T09:02:44;3.25;;;2.10;;
67564;SDS011;54393;53.556;49.216;2023-09-12T09:05:11;2.58;;;2.37;;
67564;SDS011;54393;53.556;49.216;2023-09-12T09:07:58;2.60;;;2.20;;
67564;SDS011;54393;53.556;49.216;2023-09-12T09:10:25;3.87;;;2.35;;
67564;SDS011;54393;53.556;49.216;2023-09-12T09:12:57;4.55;;;2.35;;
67564;SDS011;54393;53.556;49.216;2023-09-12T09:15:27;1.95;;;1.75;;
67564;SDS011;54393;53.556;49.216;2023-09-12T09:17:55;3.03;;;2.30;;
67564;SDS011;54393;53.556;49.216;2023-09-12T09:20:26;2.92;;;2.47;;
67564;SDS011;54393;53.556;49.216;2023-09-12T09:25:30;3.05;;;2.75;;
67564;SDS011;54393;53.556;49.216;2023-09-12T09:27:58;2.87;;;2.55;;
67564;SDS011;54393;53.556;49.216;2023-09-12T09:30:40;2.92;;;2.70;;
67564;SDS011;54393;53.556;49.216;2023-09-12T09:33:08;2.90;;;2.50;;
67564;SDS011;54393;53.556;49.216;2023-09-12T09:35:35;3.22;;;2.80;;
67564;SDS011;54393;53.556;49.216;2023-09-12T09:38:03;3.12;;;2.90;;
67564;SDS011;54393;53.556;49.216;2023-09-12T09:40:31;2.80;;;2.60;;
67564;SDS011;54393;53.556;49.216;2023-09-12T09:42:59;2.80;;;2.60;;
67564;SDS011;54393;53.556;49.216;2023-09-12T09:45:30;5.62;;;2.85;;
67564;SDS011;54393;53.556;49.216;2023-09-12T09:48:05;4.18;;;3.12;;
67564;SDS011;54393;53.556;49.216;2023-09-12T09:50:35;4.20;;;3.17;;
67564;SDS011;54393;53.556;49.216;2023-09-12T09:53:02;2.90;;;2.70;;
67564;SDS011;54393;53.556;49.216;2023-09-12T09:55:30;3.08;;;2.75;;
67564;SDS011;54393;53.556;49.216;2023-09-12T09:58:00;4.50;;;3.10;;
67564;SDS011;54393;53.556;49.216;2023-09-12T10:00:27;5.18;;;3.47;;
67564;SDS011;54393;53.556;49.216;2023-09-12T10:02:55;3.33;;;3.03;;
67564;SDS011;54393;53.556;49.216;2023-09-12T10:05:22;3.00;;;2.80;;
67564;SDS011;54393;53.556;49.216;2023-09-12T10:07:49;2.80;;;2.60;;
67564;SDS011;54393;53.556;49.216;2023-09-12T10:10:16;3.30;;;2.75;;
67564;SDS011;54393;53.556;49.216;2023-09-12T10:12:55;3.75;;;2.70;;
67564;SDS011;54393;53.556;49.216;2023-09-12T10:15:23;3.15;;;2.80;;
67564;SDS011;54393;53.556;49.216;2023-09-12T10:17:57;3.80;;;3.17;;
67564;SDS011;54393;53.556;49.216;2023-09-12T10:20:26;3.45;;;2.67;;
67564;SDS011;54393;53.556;49.216;2023-09-12T10:23:08;3.33;;;2.87;;
67564;SDS011;54393;53.556;49.216;2023-09-12T10:28:19;4.35;;;2.35;;
67564;SDS011;54393;53.556;49.216;2023-09-12T10:30:46;2.60;;;2.40;;
67564;SDS011;54393;53.556;49.216;2023-09-12T10:33:12;4.75;;;2.75;;
67564;SDS011;54393;53.556;49.216;2023-09-12T10:35:39;2.55;;;2.45;;
67564;SDS011;54393;53.556;49.216;2023-09-12T10:38:06;2.40;;;2.20;;
67564;SDS011;54393;53.556;49.216;2023-09-12T10:40:36;3.28;;;2.42;;
67564;SDS011;54393;53.556;49.216;2023-09-12T10:43:03;4.72;;;2.50;;
67564;SDS011;54393;53.556;49.216;2023-09-12T10:45:33;2.58;;;2.37;;
67564;SDS011;54393;53.556;49.216;2023-09-12T10:48:04;2.25;;;2.12;;
67564;SDS011;54393;53.556;49.216;2023-09-12T10:50:30;3.80;;;2.10;;
67564;SDS011;54393;53.556;49.216;2023-09-12T10:53:08;3.42;;;1.80;;
67564;SDS011;54393;53.556;49.216;2023-09-12T10:55:36;2.47;;;2.28;;
67564;SDS011;54393;53.556;49.216;2023-09-12T10:58:09;2.50;;;2.30;;
67564;SDS011;54393;53.556;49.216;2023-09-12T11:00:36;2.42;;;2.20;;
67564;SDS011;54393;53.556;49.216;2023-09-12T11:05:52;2.50;;;2.30;;
67564;SDS011;54393;53.556;49.216;2023-09-12T11:08:20;2.20;;;2.00;;
67564;SDS011;54393;53.556;49.216;2023-09-12T11:13:44;2.33;;;2.12;;
67564;SDS011;54393;53.556;49.216;2023-09-12T11:16:11;2.45;;;2.25;;
67564;SDS011;54393;53.556;49.216;2023-09-12T11:21:38;4.37;;;2.28;;
67564;SDS011;54393;53.556;49.216;2023-09-12T11:24:05;4.03;;;2.50;;
67564;SDS011;54393;53.556;49.216;2023-09-12T11:26:32;2.50;;;2.33;;
67564;SDS011;54393;53.556;49.216;2023-09-12T11:29:09;3.67;;;2.60;;
67564;SDS011;54393;53.556;49.216;2023-09-12T11:31:37;2.40;;;2.20;;
67564;SDS011;54393;53.556;49.216;2023-09-12T11:34:10;4.57;;;2.40;;
67564;SDS011;54393;53.556;49.216;2023-09-12T11:36:41;2.90;;;2.17;;
67564;SDS011;54393;53.556;49.216;2023-09-12T11:39:23;2.28;;;2.08;;
67564;SDS011;54393;53.556;49.216;2023-09-12T11:41:51;3.75;;;2.17;;
67564;SDS011;54393;53.556;49.216;2023-09-12T11:44:19;3.00;;;2.30;;
67564;SDS011;54393;53.556;49.216;2023-09-12T11:46:49;2.95;;;2.50;;
67564;SDS011;54393;53.556;49.216;2023-09-12T11:49:16;3.53;;;2.50;;
67564;SDS011;54393;53.556;49.216;2023-09-12T11:51:53;2.50;;;2.30;;
67564;SDS011;54393;53.556;49.216;2023-09-12T11:54:20;2.40;;;2.30;;
67564;SDS011;54393;53.556;49.216;2023-09-12T11:56:50;2.58;;;2.33;;
67564;SDS011;54393;53.556;49.216;2023-09-12T11:59:28;3.12;;;2.40;;
67564;SDS011;54393;53.556;49.216;2023-09-12T12:01:55;3.65;;;2.58;;
67564;SDS011;54393;53.556;49.216;2023-09-12T12:04:22;3.10;;;2.80;;
67564;SDS011;54393;53.556;49.216;2023-09-12T12:06:51;3.95;;;2.40;;
67564;SDS011;54393;53.556;49.216;2023-09-12T12:09:18;4.05;;;2.65;;
67564;SDS011;54393;53.556;49.216;2023-09-12T12:11:45;3.50;;;2.30;;
67564;SDS011;54393;53.556;49.216;2023-09-12T12:14:16;2.90;;;2.37;;
67564;SDS011;54393;53.556;49.216;2023-09-12T12:16:45;4.30;;;2.97;;
67564;SDS011;54393;53.556;49.216;2023-09-12T12:19:12;3.90;;;2.60;;
67564;SDS011;54393;53.556;49.216;2023-09-12T12:21:39;2.53;;;2.33;;
67564;SDS011;54393;53.556;49.216;2023-09-12T12:24:07;3.47;;;2.60;;
67564;SDS011;54393;53.556;49.216;2023-09-12T12:26:35;4.57;;;2.67;;
67564;SDS011;54393;53.556;49.216;2023-09-12T12:29:05;3.30;;;2.37;;
67564;SDS011;54393;53.556;49.216;2023-09-12T12:31:31;3.90;;;2.70;;
67564;SDS011;54393;53.556;49.216;2023-09-12T12:33:58;2.50;;;2.30;;
67564;SDS011;54393;53.556;49.216;2023-09-12T12:36:25;2.83;;;2.62;;
67564;SDS011;54393;53.556;49.216;2023-09-12T12:38:52;3.45;;;2.30;;
67564;SDS011;54393;53.556;49.216;2023-09-12T12:41:26;3.78;;;2.85;;
67564;SDS011;54393;53.556;49.216;2023-09-12T12:43:55;3.92;;;2.83;;
67564;SDS011;54393;53.556;49.216;2023-09-12T12:46:26;5.37;;;2.40;;
67564;SDS011;54393;53.556;49.216;2023-09-12T12:48:54;2.85;;;2.45;;
67564;SDS011;54393;53.556;49.216;2023-09-12T12:51:22;2.83;;;2.62;;
67564;SDS011;54393;53.556;49.216;2023-09-12T12:53:50;3.08;;;2.87;;
67564;SDS011;54393;53.556;49.216;2023-09-12T12:56:25;2.50;;;2.30;;
67564;SDS011;54393;53.556;49.216;2023-09-12T12:58:56;3.80;;;2.45;;
67564;SDS011;54393;53.556;49.216;2023-09-12T13:01:24;2.50;;;2.30;;
67564;SDS011;54393;53.556;49.216;2023-09-12T13:03:50;2.47;;;2.28;;
67564;SDS011;54393;53.556;49.216;2023-09-12T13:06:18;2.60;;;2.35;;
67564;SDS011;54393;53.556;49.216;2023-09-12T13:08:45;2.42;;;2.22;;
67564;SDS011;54393;53.556;49.216;2023-09-12T13:11:13;2.85;;;2.28;;
67564;SDS011;54393;53.556;49.216;2023-09-12T13:13:40;2.33;;;2.20;;
67564;SDS011;54393;53.556;49.216;2023-09-12T13:16:08;2.47;;;2.28;;
67564;SDS011;54393;53.556;49.216;2023-09-12T13:18:35;3.47;;;2.20;;
67564;SDS011;54393;53.556;49.216;2023-09-12T13:21:02;3.08;;;2.50;;
67564;SDS011;54393;53.556;49.216;2023-09-12T13:23:29;3.03;;;2.33;;
67564;SDS011;54393;53.556;49.216;2023-09-12T13:25:56;3.60;;;2.30;;
67564;SDS011;54393;53.556;49.216;2023-09-12T13:28:23;2.40;;;2.20;;
67564;SDS011;54393;53.556;49.216;2023-09-12T13:30:54;2.45;;;2.25;;
67564;SDS011;54393;53.556;49.216;2023-09-12T13:33:21;2.30;;;2.10;;
67564;SDS011;54393;53.556;49.216;2023-09-12T13:35:50;3.35;;;2.47;;
67564;SDS011;54393;53.556;49.216;2023-09-12T13:38:17;2.25;;;2.05;;
67564;SDS011;54393;53.556;49.216;2023-09-12T13:40:44;3.62;;;2.28;;
67564;SDS011;54393;53.556;49.216;2023-09-12T13:43:11;2.75;;;2.15;;
67564;SDS011;54393;53.556;49.216;2023-09-12T13:45:38;2.00;;;1.90;;
67564;SDS011;54393;53.556;49.216;2023-09-12T13:48:05;2.45;;;2.25;;
67564;SDS011;54393;53.556;49.216;2023-09-12T13:50:32;2.55;;;2.40;;
67564;SDS011;54393;53.556;49.216;2023-09-12T13:52:59;2.40;;;2.20;;
67564;SDS011;54393;53.556;49.216;2023-09-12T13:55:29;2.10;;;1.95;;
67564;SDS011;54393;53.556;49.216;2023-09-12T13:57:55;1.90;;;1.80;;
67564;SDS011;54393;53.556;49.216;2023-09-12T14:00:22;2.08;;;1.98;;
67564;SDS011;54393;53.556;49.216;2023-09-12T14:02:48;2.08;;;1.98;;
67564;SDS011;54393;53.556;49.216;2023-09-12T14:05:15;2.20;;;2.08;;
67564;SDS011;54393;53.556;49.216;2023-09-12T14:07:41;2.12;;;2.03;;
67564;SDS011;54393;53.556;49.216;2023-09-12T14:10:08;2.75;;;1.98;;
67564;SDS011;54393;53.556;49.216;2023-09-12T14:12:55;2.50;;;2.30;;
67564;SDS011;54393;53.556;49.216;2023-09-12T14:15:21;2.30;;;2.10;;
67564;SDS011;54393;53.556;49.216;2023-09-12T14:17:48;1.95;;;1.85;;
67564;SDS011;54393;53.556;49.216;2023-09-12T14:20:14;1.90;;;1.77;;
67564;SDS011;54393;53.556;49.216;2023-09-12T14:23:01;3.80;;;1.92;;
67564;SDS011;54393;53.556;49.216;2023-09-12T14:25:28;2.10;;;1.90;;
67564;SDS011;54393;53.556;49.216;2023-09-12T14:27:55;1.80;;;1.67;;
67564;SDS011;54393;53.556;49.216;2023-09-12T14:30:21;1.77;;;1.67;;
67564;SDS011;54393;53.556;49.216;2023-09-12T14:32:48;1.92;;;1.83;;
67564;SDS011;54393;53.556;49.216;2023-09-12T14:35:14;2.08;;;1.92;;
67564;SDS011;54393;53.556;49.216;2023-09-12T14:37:41;2.40;;;1.90;;
67564;SDS011;54393;53.556;49.216;2023-09-12T14:40:07;1.73;;;1.62;;
67564;SDS011;54393;53.556;49.216;2023-09-12T14:42:56;2.58;;;2.10;;
67564;SDS011;54393;53.556;49.216;2023-09-12T14:45:22;1.80;;;1.70;;
67564;SDS011;54393;53.556;49.216;2023-09-12T14:47:50;2.20;;;2.00;;
67564;SDS011;54393;53.556;49.216;2023-09-12T14:50:18;2.58;;;2.10;;
67564;SDS011;54393;53.556;49.216;2023-09-12T14:53:05;1.80;;;1.70;;
67564;SDS011;54393;53.556;49.216;2023-09-12T14:55:32;2.17;;;2.08;;
67564;SDS011;54393;53.556;49.216;2023-09-12T14:57:58;2.30;;;2.10;;
67564;SDS011;54393;53.556;49.216;2023-09-12T15:00:25;2.10;;;2.00;;
67564;SDS011;54393;53.556;49.216;2023-09-12T15:02:51;2.00;;;1.90;;
67564;SDS011;54393;53.556;49.216;2023-09-12T15:05:18;3.85;;;2.03;;
67564;SDS011;54393;53.556;49.216;2023-09-12T15:07:44;2.00;;;1.90;;